ENGM/OSL METAR and TAF weather

Enter ICAO airport designator
Station Type Date Time Source
ENGM METAR 2021/09/19 14:20 UTC NOAA

ENGM 191420Z 11005KT 070V140 9999 OVC042 10/02 Q1026 NOSIG


Station Type Date Time Source
ENGM Decoded METAR 2021/09/19 14:20 UTC NOAA

Oslo / Gardermoen, Norway (ENGM) 60-12N 011-05E 204M
Sep 19, 2021 - 10:20 AM EDT / 2021.09.19 1420 UTC
Wind: from the ESE (110 degrees) at 6 MPH (5 KT) (direction variable):0
Visibility: greater than 7 mile(s):0
Sky conditions: overcast
Temperature: 50 F (10 C)
Dew Point: 35 F (2 C)
Relative Humidity: 57%
Pressure (altimeter): 30.30 in. Hg (1026 hPa)
ob: ENGM 191420Z 11005KT 070V140 9999 OVC042 10/02 Q1026 NOSIG
cycle: 14

Station Type Date Time Source
ENGM TAF 2021/09/19 12:57 UTC NOAA

TAF ENGM 191100Z 1912/2012 16008KT 9999 BKN040

Example: see airport list